Time;durP1;ratioP1;P1;durP2;ratioP2;P2;SDS_P1;SDS_P2;PMS_P1;PMS_P2;Temp;Humidity;BMP_temperature;BMP_pressure;BME280_temperature;BME280_humidity;BME280_pressure;Samples;Min_cycle;Max_cycle;Signal;HPM_P1;HPM_P2
2022/08/26 00:00:53;;;;;;;7.00;2.65;;;;;;;25.00;62.18;99264.66;4477384;32;32387;-83
2022/08/26 00:03:23;;;;;;;6.03;2.03;;;;;;;25.09;61.91;99261.28;4476963;32;33162;-82
2022/08/26 00:05:54;;;;;;;9.25;2.62;;;;;;;25.13;61.75;99262.72;4477209;32;33892;-81
2022/08/26 00:08:24;;;;;;;6.70;2.33;;;;;;;25.10;62.07;99260.34;4477021;32;34447;-81
2022/08/26 00:10:54;;;;;;;6.03;3.12;;;;;;;25.17;61.63;99259.81;4482843;32;33064;-83
2022/08/26 00:13:23;;;;;;;4.15;1.95;;;;;;;25.08;62.03;99256.94;4477957;32;33788;-82
2022/08/26 00:15:52;;;;;;;4.05;1.85;;;;;;;24.91;62.52;99263.59;4476871;32;33704;-81
2022/08/26 00:18:21;;;;;;;5.40;2.97;;;;;;;24.99;62.43;99259.50;4477114;32;33643;-81
2022/08/26 00:20:51;;;;;;;3.50;1.62;;;;;;;24.90;62.72;99259.25;4482736;32;32998;-82
2022/08/26 00:23:19;;;;;;;5.28;2.55;;;;;;;24.93;62.54;99258.16;4477011;32;34309;-81
2022/08/26 00:25:52;;;;;;;4.45;2.10;;;;;;;24.89;62.63;99262.03;4476247;32;34507;-82
2022/08/26 00:28:22;;;;;;;4.95;2.35;;;;;;;24.80;62.91;99263.59;4476355;32;33287;-82
2022/08/26 00:30:51;;;;;;;4.93;2.55;;;;;;;24.85;62.85;99258.78;4476757;32;33000;-82
2022/08/26 00:33:20;;;;;;;6.68;2.28;;;;;;;24.78;63.12;99264.69;4481977;32;33926;-81
2022/08/26 00:35:49;;;;;;;4.82;2.15;;;;;;;24.84;62.82;99256.22;4476814;32;33848;-83
2022/08/26 00:38:20;;;;;;;5.12;2.17;;;;;;;24.81;62.96;99259.13;4476634;32;33600;-81
2022/08/26 00:40:51;;;;;;;;;;;;;;;24.82;62.88;99256.38;4477147;32;33112;-83
2022/08/26 00:43:22;;;;;;;4.10;2.40;;;;;;;24.75;63.08;99249.88;4482590;32;34011;-82
2022/08/26 00:45:52;;;;;;;4.10;2.72;;;;;;;24.76;63.07;99248.88;4477186;32;33858;-82
2022/08/26 00:48:25;;;;;;;4.80;2.35;;;;;;;24.80;63.02;99247.69;4477205;32;33800;-83
2022/08/26 00:51:01;;;;;;;4.35;2.35;;;;;;;24.58;63.88;99247.69;4477279;32;33457;-81
2022/08/26 00:53:34;;;;;;;4.25;2.10;;;;;;;24.67;63.38;99242.50;4478297;32;33976;-82
2022/08/26 00:56:06;;;;;;;4.37;1.77;;;;;;;24.58;63.64;99243.22;4482033;32;34519;-81
2022/08/26 00:58:41;;;;;;;6.50;3.10;;;;;;;24.60;63.60;99240.47;4476694;32;33513;-81
2022/08/26 01:01:13;;;;;;;5.68;2.53;;;;;;;24.52;63.84;99237.56;4476626;32;33677;-81
2022/08/26 01:03:43;;;;;;;5.60;2.40;;;;;;;24.47;64.14;99237.91;4476659;32;34501;-82
2022/08/26 01:06:14;;;;;;;5.22;2.58;;;;;;;24.39;64.40;99249.09;4478345;32;33624;-83
2022/08/26 01:08:43;;;;;;;5.03;2.45;;;;;;;24.19;65.21;99241.84;4482563;32;34472;-82
2022/08/26 01:11:12;;;;;;;4.20;2.15;;;;;;;24.34;64.42;99247.78;4476596;32;32710;-82
2022/08/26 01:13:42;;;;;;;6.07;2.60;;;;;;;24.36;64.34;99249.34;4476422;32;34638;-82
2022/08/26 01:16:13;;;;;;;5.05;1.90;;;;;;;24.43;64.08;99249.72;4476600;32;33262;-82
2022/08/26 01:18:43;;;;;;;5.45;2.75;;;;;;;24.26;64.39;99243.91;4481781;32;33092;-83
2022/08/26 01:21:17;;;;;;;5.97;2.58;;;;;;;24.26;64.29;99243.06;4476285;32;32446;-82
2022/08/26 01:23:50;;;;;;;5.97;2.40;;;;;;;24.27;64.55;99244.75;4479644;32;33576;-83
2022/08/26 01:26:28;;;;;;;6.28;2.00;;;;;;;24.37;64.28;99239.56;4468671;32;33146;-81
2022/08/26 01:28:59;;;;;;;3.50;1.85;;;;;;;24.31;64.50;99242.69;4471238;32;33738;-81
2022/08/26 01:31:32;;;;;;;4.20;1.70;;;;;;;24.35;64.31;99228.25;4481915;32;33016;-81
2022/08/26 01:34:05;;;;;;;4.45;2.33;;;;;;;24.34;64.31;99245.13;4476490;32;34752;-83
2022/08/26 01:36:37;;;;;;;6.47;2.75;;;;;;;24.20;64.71;99241.72;4476359;32;33387;-82
2022/08/26 01:39:07;;;;;;;4.45;2.30;;;;;;;24.04;65.23;99236.75;4476021;32;34155;-82
2022/08/26 01:41:36;;;;;;;;;;;;;;;24.04;65.24;99239.41;4476415;32;34390;-83
2022/08/26 01:44:07;;;;;;;3.00;1.42;;;;;;;24.15;65.04;99240.38;4481781;32;34293;-82
2022/08/26 01:46:37;;;;;;;4.07;2.12;;;;;;;24.10;64.87;99231.94;4476247;32;34537;-81
2022/08/26 01:49:07;;;;;;;3.67;1.98;;;;;;;24.18;64.58;99233.03;4476237;32;33140;-82
2022/08/26 01:51:36;;;;;;;6.22;2.28;;;;;;;24.04;65.05;99230.59;4476193;32;32884;-82
2022/08/26 01:54:08;;;;;;;4.90;2.50;;;;;;;24.15;64.60;99232.44;4481438;32;34980;-82
2022/08/26 01:56:39;;;;;;;4.12;2.37;;;;;;;23.97;65.03;99235.53;4475831;32;33658;-82
2022/08/26 01:59:12;;;;;;;5.62;2.25;;;;;;;24.09;64.47;99235.53;4475760;32;33935;-81
2022/08/26 02:01:41;;;;;;;4.35;2.37;;;;;;;23.88;65.16;99238.87;4475800;32;34084;-83
2022/08/26 02:04:15;;;;;;;5.30;2.45;;;;;;;23.96;64.84;99241.78;4476521;32;33760;-82
2022/08/26 02:06:44;;;;;;;3.80;1.95;;;;;;;24.00;64.65;99235.28;4481723;32;33935;-83
2022/08/26 02:09:15;;;;;;;4.07;2.37;;;;;;;24.13;64.25;99235.19;4476151;32;33073;-82
2022/08/26 02:11:44;;;;;;;4.05;2.25;;;;;;;24.26;63.79;99235.94;4476123;32;34009;-82
2022/08/26 02:14:16;;;;;;;4.22;2.55;;;;;;;23.91;64.77;99235.16;4476295;32;33549;-82
2022/08/26 02:16:47;;;;;;;3.42;1.60;;;;;;;23.93;64.89;99222.63;4481316;32;34793;-82
2022/08/26 02:19:18;;;;;;;5.82;2.60;;;;;;;23.89;65.16;99229.94;4475763;32;34393;-83
2022/08/26 02:21:47;;;;;;;;;;;;;;;23.88;65.11;99222.97;4476057;32;34084;-80
2022/08/26 02:24:23;;;;;;;5.25;2.15;;;;;;;23.91;65.05;99227.19;4475708;32;34627;-82
2022/08/26 02:26:56;;;;;;;10.40;2.60;;;;;;;23.99;64.87;99230.97;4475320;32;34060;-82
2022/08/26 02:29:30;;;;;;;4.70;2.37;;;;;;;23.91;65.06;99232.50;4481646;32;33158;-82
2022/08/26 02:31:59;;;;;;;3.70;1.83;;;;;;;23.87;64.98;99236.31;4476481;32;33252;-82
2022/08/26 02:34:31;;;;;;;4.93;2.12;;;;;;;23.96;64.70;99233.81;4477948;32;34510;-82
2022/08/26 02:37:02;;;;;;;4.45;2.15;;;;;;;23.91;64.92;99235.97;4478165;32;33723;-83
2022/08/26 02:39:33;;;;;;;4.68;2.03;;;;;;;23.69;65.62;99243.84;4478275;32;33363;-83
2022/08/26 02:42:02;;;;;;;6.18;2.33;;;;;;;23.83;65.04;99241.88;4483681;32;32994;-83
2022/08/26 02:44:31;;;;;;;4.40;2.53;;;;;;;23.93;64.79;99236.72;4477572;32;34218;-82
2022/08/26 02:47:01;;;;;;;5.05;2.00;;;;;;;23.88;64.89;99233.56;4478059;32;34604;-83
2022/08/26 02:49:30;;;;;;;3.90;1.87;;;;;;;24.00;64.40;99230.00;4477990;32;33448;-82
2022/08/26 02:51:59;;;;;;;3.95;2.00;;;;;;;24.03;64.26;99236.88;4483315;32;33144;-82
2022/08/26 02:54:32;;;;;;;5.30;2.53;;;;;;;23.90;64.55;99230.81;4477586;32;33769;-83
2022/08/26 02:57:01;;;;;;;5.53;2.30;;;;;;;23.77;65.00;99228.22;4477072;32;33799;-82
2022/08/26 02:59:31;;;;;;;4.50;2.03;;;;;;;23.79;64.87;99224.50;4477821;32;33892;-82
2022/08/26 03:02:00;;;;;;;4.75;2.37;;;;;;;23.90;64.77;99226.38;4478763;32;33324;-81
2022/08/26 03:04:29;;;;;;;4.45;2.30;;;;;;;23.78;65.08;99228.12;4483148;32;34751;-82
2022/08/26 03:07:01;;;;;;;4.53;2.28;;;;;;;23.74;65.26;99225.81;4477599;32;34130;-82
2022/08/26 03:09:32;;;;;;;5.10;2.15;;;;;;;23.75;65.30;99225.72;4477368;32;34278;-82
2022/08/26 03:12:00;;;;;;;5.23;2.70;;;;;;;23.85;65.14;99226.72;4477847;32;33297;-82
2022/08/26 03:14:29;;;;;;;5.35;2.22;;;;;;;23.83;65.22;99227.78;4483109;32;33482;-83
2022/08/26 03:16:59;;;;;;;5.55;3.05;;;;;;;23.68;65.64;99226.25;4477707;32;34119;-83
2022/08/26 03:19:27;;;;;;;4.03;2.25;;;;;;;23.71;65.62;99220.72;4477491;32;33855;-82
2022/08/26 03:21:59;;;;;;;8.18;3.15;;;;;;;23.65;65.60;99216.72;4476708;32;33162;-82
2022/08/26 03:24:27;;;;;;;4.10;1.83;;;;;;;23.54;65.81;99220.19;4475976;32;33573;-82
2022/08/26 03:26:57;;;;;;;4.05;1.92;;;;;;;23.62;65.34;99216.97;4482443;32;34664;-82
2022/08/26 03:32:17;;;;;;;;;;;;;;;23.60;65.69;99218.88;4477849;32;33432;-82
2022/08/26 03:34:46;;;;;;;5.82;2.03;;;;;;;23.58;65.60;99218.13;4477438;32;34562;-83
2022/08/26 03:37:15;;;;;;;3.65;1.90;;;;;;;23.55;65.69;99221.84;4483374;32;33778;-82
2022/08/26 03:39:44;;;;;;;6.50;2.85;;;;;;;23.58;65.57;99216.34;4482187;32;33830;-82
2022/08/26 03:42:17;;;;;;;7.68;1.98;;;;;;;23.56;65.51;99212.12;4476885;32;33249;-83
2022/08/26 03:44:49;;;;;;;4.68;2.22;;;;;;;23.49;65.82;99216.19;4476443;32;35026;-82
2022/08/26 03:47:19;;;;;;;4.62;2.35;;;;;;;23.50;65.62;99221.34;4477127;32;34551;-82
2022/08/26 03:49:50;;;;;;;5.07;2.60;;;;;;;23.32;66.17;99217.44;4482803;32;34078;-82
2022/08/26 03:52:19;;;;;;;5.18;2.55;;;;;;;23.38;66.23;99222.28;4477234;32;33732;-81
2022/08/26 03:54:48;;;;;;;6.47;3.95;;;;;;;23.25;67.09;99216.19;4477338;32;33415;-84
2022/08/26 03:57:18;;;;;;;5.93;2.37;;;;;;;23.28;66.78;99210.69;4477602;32;33618;-83
2022/08/26 03:59:47;;;;;;;4.53;2.10;;;;;;;23.42;66.10;99215.81;4481563;32;32796;-82
2022/08/26 04:02:16;;;;;;;4.18;2.37;;;;;;;23.38;66.19;99217.81;4482414;32;33174;-82
2022/08/26 04:04:45;;;;;;;5.30;2.00;;;;;;;23.50;65.87;99216.06;4478592;32;34074;-82
2022/08/26 04:07:15;;;;;;;5.15;2.40;;;;;;;23.37;66.16;99212.66;4477223;32;34503;-82
2022/08/26 04:09:45;;;;;;;5.12;2.78;;;;;;;23.34;66.21;99213.72;4477279;32;33714;-82
2022/08/26 04:12:13;;;;;;;7.15;2.72;;;;;;;23.36;66.05;99211.78;4482880;32;34015;-81
2022/08/26 04:14:44;;;;;;;3.45;1.92;;;;;;;23.34;66.13;99213.72;4476753;32;33174;-82
2022/08/26 04:17:14;;;;;;;3.78;2.17;;;;;;;23.40;66.03;99217.72;4477096;32;34847;-83
2022/08/26 04:19:44;;;;;;;3.60;1.87;;;;;;;23.40;65.98;99217.72;4476910;32;34302;-83
2022/08/26 04:22:13;;;;;;;5.70;2.60;;;;;;;23.50;65.75;99215.22;4483016;32;33624;-83
2022/08/26 04:24:51;;;;;;;6.00;2.58;;;;;;;23.38;66.12;99217.81;4482675;32;34483;-82
2022/08/26 04:27:20;;;;;;;5.20;2.08;;;;;;;23.43;66.01;99218.31;4477325;32;33870;-83
2022/08/26 04:29:50;;;;;;;5.18;2.40;;;;;;;23.38;66.25;99224.91;4477333;32;34439;-81
2022/08/26 04:32:23;;;;;;;3.78;1.95;;;;;;;23.42;66.46;99224.59;4480190;32;32786;-82
2022/08/26 04:34:52;;;;;;;5.53;2.83;;;;;;;23.33;66.73;99221.75;4482587;32;34531;-83
2022/08/26 04:37:20;;;;;;;5.05;2.28;;;;;;;23.32;66.91;99220.94;4476986;32;34661;-83
2022/08/26 04:39:53;;;;;;;4.05;2.17;;;;;;;23.43;66.54;99218.31;4476627;32;33361;-82
2022/08/26 04:42:22;;;;;;;3.42;2.10;;;;;;;23.38;66.90;99222.28;4476612;32;33361;-82
2022/08/26 04:44:55;;;;;;;3.15;1.95;;;;;;;23.39;66.95;99224.81;4477162;32;33705;-81
2022/08/26 04:47:24;;;;;;;5.50;2.73;;;;;;;23.43;67.18;99226.25;4482703;32;33414;-82
2022/08/26 04:49:59;;;;;;;4.60;2.17;;;;;;;23.38;67.43;99222.28;4476943;32;33781;-83
2022/08/26 04:52:29;;;;;;;5.05;2.25;;;;;;;23.48;67.16;99219.78;4477147;32;32564;-82
2022/08/26 04:54:58;;;;;;;4.40;1.77;;;;;;;23.55;66.91;99218.38;4475507;32;34235;-82
2022/08/26 04:57:27;;;;;;;5.47;2.15;;;;;;;23.63;66.69;99221.28;4482510;32;34378;-83
2022/08/26 04:59:57;;;;;;;3.00;1.85;;;;;;;23.71;66.82;99220.72;4476732;32;34002;-82
2022/08/26 05:02:27;;;;;;;4.87;1.92;;;;;;;23.89;65.52;99218.53;4477944;32;33192;-82
2022/08/26 05:04:56;;;;;;;5.35;2.30;;;;;;;23.88;65.95;99224.78;4476786;32;34334;-83
2022/08/26 05:07:25;;;;;;;3.60;2.25;;;;;;;23.93;65.23;99215.53;4476879;32;33141;-83
2022/08/26 05:09:54;;;;;;;4.25;2.10;;;;;;;23.73;66.25;99214.38;4482554;32;33707;-82
2022/08/26 05:12:23;;;;;;;4.95;1.90;;;;;;;23.92;66.24;99219.16;4476898;32;33660;-82
2022/08/26 05:14:52;;;;;;;4.65;2.00;;;;;;;23.87;66.62;99220.44;4476692;32;34165;-82
2022/08/26 05:17:22;;;;;;;5.60;1.83;;;;;;;24.11;64.93;99223.03;4476580;32;34862;-82
2022/08/26 05:19:51;;;;;;;6.40;2.67;;;;;;;23.69;67.23;99222.66;4482333;32;32941;-83
2022/08/26 05:22:20;;;;;;;3.40;1.70;;;;;;;24.13;65.26;99223.75;4476899;32;32943;-82
2022/08/26 05:24:49;;;;;;;3.85;2.10;;;;;;;24.38;63.89;99225.34;4476516;32;33465;-82
2022/08/26 05:27:20;;;;;;;4.57;2.20;;;;;;;24.45;64.26;99222.13;4476298;32;33641;-84
2022/08/26 05:29:50;;;;;;;6.22;2.10;;;;;;;24.37;65.30;99219.19;4485013;31;33575;-82
2022/08/26 05:32:23;;;;;;;5.28;2.53;;;;;;;24.85;63.17;99221.63;4491714;31;33115;-82
2022/08/26 05:34:54;;;;;;;2.50;1.70;;;;;;;25.13;61.97;99222.09;4476634;32;34678;-83
2022/08/26 05:37:22;;;;;;;7.43;2.50;;;;;;;25.10;62.28;99228.47;4476512;32;36049;-83
2022/08/26 05:39:51;;;;;;;5.97;2.30;;;;;;;25.53;61.35;99230.28;4476499;32;34403;-82
2022/08/26 05:42:20;;;;;;;4.05;2.20;;;;;;;26.06;58.80;99223.31;4481338;31;33435;-83
2022/08/26 05:44:52;;;;;;;8.77;2.42;;;;;;;26.52;57.86;99228.16;4474932;31;33356;-83
2022/08/26 05:47:25;;;;;;;5.45;2.33;;;;;;;26.97;55.81;99224.31;4475563;31;33314;-83
2022/08/26 05:49:54;;;;;;;3.50;1.90;;;;;;;27.02;55.61;99227.41;4475509;31;33617;-82
2022/08/26 05:52:32;;;;;;;5.05;1.87;;;;;;;26.96;55.59;99234.09;4475717;31;33132;-83
2022/08/26 05:55:01;;;;;;;5.25;2.67;;;;;;;26.74;56.48;99229.81;4481314;31;33474;-83
2022/08/26 05:57:30;;;;;;;6.37;2.37;;;;;;;26.64;57.28;99228.94;4474527;31;34085;-82
2022/08/26 05:59:59;;;;;;;5.12;2.50;;;;;;;26.44;57.59;99229.81;4475254;31;33804;-83
2022/08/26 06:02:29;;;;;;;4.40;2.30;;;;;;;26.35;57.32;99234.09;4475153;31;33838;-83
2022/08/26 06:04:59;;;;;;;5.85;1.87;;;;;;;26.46;56.40;99228.72;4481125;31;34064;-83
2022/08/26 06:10:12;;;;;;;5.95;2.30;;;;;;;26.37;56.27;99238.31;4477437;31;33431;-83
2022/08/26 06:13:00;;;;;;;4.22;1.45;;;;;;;26.54;56.08;99231.56;4477695;32;33940;-83
2022/08/26 06:15:41;;;;;;;4.30;1.70;;;;;;;26.44;56.20;99240.47;4480759;31;33840;-82
2022/08/26 06:18:13;;;;;;;3.87;1.85;;;;;;;26.46;55.89;99243.81;4485254;31;34066;-83
2022/08/26 06:20:44;;;;;;;4.12;1.92;;;;;;;26.76;55.76;99240.34;4499394;31;33476;-83
2022/08/26 06:26:14;;;;;;;3.30;1.50;;;;;;;26.39;56.45;99244.34;4478217;32;33725;-83
2022/08/26 06:28:44;;;;;;;5.07;1.90;;;;;;;26.54;55.16;99241.38;4477909;32;34336;-82
2022/08/26 06:31:14;;;;;;;9.43;2.55;;;;;;;26.70;54.29;99255.03;4477815;32;32878;-82
2022/08/26 06:33:45;;;;;;;5.13;1.73;;;;;;;26.69;52.80;99255.16;4483489;32;33626;-83
2022/08/26 06:36:18;;;;;;;5.60;1.85;;;;;;;26.55;53.80;99240.38;4477351;32;34431;-83
2022/08/26 06:38:47;;;;;;;4.22;1.85;;;;;;;26.89;51.99;99250.75;4477988;32;33325;-82
2022/08/26 06:41:19;;;;;;;7.10;1.70;;;;;;;26.98;51.60;99241.94;4477439;32;33235;-82
2022/08/26 06:43:49;;;;;;;7.25;2.17;;;;;;;26.89;52.68;99246.25;4478216;31;33118;-83
2022/08/26 06:46:22;;;;;;;5.75;2.55;;;;;;;27.21;50.70;99247.94;4484853;31;33384;-82
2022/08/26 06:48:57;;;;;;;3.40;1.60;;;;;;;26.73;51.98;99248.59;4481844;31;33754;-84
2022/08/26 06:51:28;;;;;;;5.25;2.00;;;;;;;26.96;51.81;99251.88;4482513;31;33641;-85
2022/08/26 06:53:59;;;;;;;3.78;1.87;;;;;;;26.89;52.27;99248.06;4483124;31;32959;-85
2022/08/26 06:56:29;;;;;;;3.67;1.73;;;;;;;27.05;51.63;99248.41;4482709;31;33491;-83
2022/08/26 06:58:58;;;;;;;3.15;1.80;;;;;;;27.13;51.42;99243.22;4475340;31;33500;-84
2022/08/26 07:01:29;;;;;;;9.10;2.70;;;;;;;27.26;49.98;99243.03;4476491;31;34038;-84
2022/08/26 07:04:03;;;;;;;3.10;1.30;;;;;;;27.31;49.68;99242.62;4476385;31;34030;-84
2022/08/26 07:06:40;;;;;;;4.20;1.70;;;;;;;27.40;45.55;99244.44;4477036;31;34646;-85
2022/08/26 07:09:10;;;;;;;4.95;2.15;;;;;;;27.63;44.79;99240.53;4483091;32;34542;-85
2022/08/26 07:11:41;;;;;;;4.30;2.12;;;;;;;27.43;44.96;99244.16;4477663;32;33891;-84
2022/08/26 07:14:10;;;;;;;4.60;1.85;;;;;;;27.54;43.63;99241.34;4477678;32;33245;-83
2022/08/26 07:16:39;;;;;;;5.40;1.52;;;;;;;27.82;43.36;99242.38;4479111;31;33831;-82
2022/08/26 07:19:10;;;;;;;4.32;1.35;;;;;;;27.87;42.75;99245.47;4480485;31;34429;-83
2022/08/26 07:21:40;;;;;;;5.00;1.45;;;;;;;27.79;42.12;99252.47;4479989;31;34106;-82
2022/08/26 07:24:10;;;;;;;4.03;2.30;;;;;;;27.89;42.31;99252.50;4474340;31;33488;-83
2022/08/26 07:26:40;;;;;;;6.85;2.62;;;;;;;27.62;43.24;99252.19;4469108;31;34218;-83
2022/08/26 07:29:11;;;;;;;;;;;;;;;27.89;41.89;99248.00;4474396;32;33900;-83
2022/08/26 07:31:40;;;;;;;3.72;1.92;;;;;;;27.93;42.04;99248.53;4481493;31;34174;-83
2022/08/26 07:34:12;;;;;;;4.65;2.00;;;;;;;27.73;42.18;99242.34;4478160;31;33387;-83
2022/08/26 07:36:41;;;;;;;6.97;1.77;;;;;;;28.26;42.08;99242.72;4475028;32;34065;-83
2022/08/26 07:39:10;;;;;;;2.12;1.15;;;;;;;27.99;41.72;99246.16;4474790;32;33559;-82
2022/08/26 07:41:41;;;;;;;9.05;3.10;;;;;;;27.95;42.07;99238.56;4478179;32;34015;-82
2022/08/26 07:44:11;;;;;;;3.80;1.98;;;;;;;27.79;42.34;99241.81;4479253;32;32667;-81
2022/08/26 07:46:40;;;;;;;4.95;2.00;;;;;;;28.17;41.97;99237.41;4474207;31;33602;-81
2022/08/26 07:49:13;;;;;;;7.18;1.62;;;;;;;28.15;42.02;99242.03;4473931;31;34137;-81
2022/08/26 07:51:43;;;;;;;5.07;1.90;;;;;;;28.47;41.79;99242.56;4475308;32;34168;-81
2022/08/26 07:54:12;;;;;;;6.43;1.87;;;;;;;28.50;42.09;99239.59;4482790;31;33619;-81
2022/08/26 07:56:40;;;;;;;4.32;1.80;;;;;;;28.39;42.72;99237.09;4479399;31;33402;-83
2022/08/26 07:59:12;;;;;;;5.05;2.30;;;;;;;28.53;42.62;99240.28;4473537;31;34462;-82
2022/08/26 08:01:42;;;;;;;4.50;1.30;;;;;;;28.67;42.02;99237.97;4471693;31;32005;-82
2022/08/26 08:04:17;;;;;;;7.32;1.75;;;;;;;28.78;41.26;99234.28;4473720;31;32486;-83
2022/08/26 08:06:53;;;;;;;4.80;1.80;;;;;;;28.58;41.89;99238.84;4480340;32;32913;-83
2022/08/26 08:09:23;;;;;;;6.85;2.40;;;;;;;28.96;41.93;99241.50;4474623;32;34068;-82
2022/08/26 08:11:52;;;;;;;2.50;1.45;;;;;;;28.73;41.84;99236.56;4475656;31;33286;-83
2022/08/26 08:14:21;;;;;;;3.37;2.00;;;;;;;29.10;41.41;99230.34;4476605;31;33043;-82
2022/08/26 08:16:50;;;;;;;3.75;1.67;;;;;;;29.01;41.72;99240.06;4481938;31;34093;-83
2022/08/26 08:19:24;;;;;;;5.93;2.37;;;;;;;29.14;40.91;99237.09;4474763;32;33823;-83
2022/08/26 08:22:04;;;;;;;11.63;2.55;;;;;;;29.29;41.74;99230.22;4475098;32;34512;-82
2022/08/26 08:24:45;;;;;;;9.93;2.15;;;;;;;29.42;41.73;99223.66;4474487;32;33318;-82
2022/08/26 08:27:17;;;;;;;5.43;2.08;;;;;;;29.19;42.29;99221.44;4473773;32;33703;-83
2022/08/26 08:29:53;;;;;;;3.62;1.62;;;;;;;29.20;40.57;99223.09;4480262;31;33193;-82
2022/08/26 08:32:23;;;;;;;3.75;1.85;;;;;;;29.34;40.98;99224.41;4478370;32;33741;-83
2022/08/26 08:34:53;;;;;;;4.10;1.65;;;;;;;29.26;41.63;99216.31;4475490;31;33809;-81
2022/08/26 08:37:21;;;;;;;2.05;1.37;;;;;;;29.27;40.97;99228.69;4476123;31;33327;-83
2022/08/26 08:39:51;;;;;;;3.12;1.67;;;;;;;29.62;40.24;99219.81;4476821;31;33787;-82
2022/08/26 08:42:37;;;;;;;3.78;2.10;;;;;;;29.89;39.59;99223.41;4480731;31;33102;-82
2022/08/26 08:45:10;;;;;;;6.35;1.85;;;;;;;29.88;40.43;99225.25;4474041;31;34103;-82
2022/08/26 08:47:41;;;;;;;4.03;1.40;;;;;;;29.91;39.69;99224.97;4475938;31;33086;-82
2022/08/26 08:50:22;;;;;;;6.68;1.67;;;;;;;29.88;40.17;99219.06;4476094;31;33612;-82
2022/08/26 08:53:00;;;;;;;;;;;;;;;29.95;40.22;99220.12;4487330;31;33987;-83
2022/08/26 08:55:38;;;;;;;3.60;1.25;;;;;;;29.99;40.25;99216.16;4498211;31;33072;-83
2022/08/26 08:58:13;;;;;;;2.83;1.58;;;;;;;30.03;40.65;99211.31;4496608;31;33395;-82
2022/08/26 09:01:00;;;;;;;6.22;1.90;;;;;;;29.93;40.00;99216.75;4477009;32;34497;-82
2022/08/26 09:03:40;;;;;;;7.95;2.15;;;;;;;30.14;38.64;99208.37;4477012;32;33890;-82
2022/08/26 09:06:16;;;;;;;4.12;1.37;;;;;;;30.24;39.24;99202.94;4476602;32;33696;-83
2022/08/26 09:08:46;;;;;;;7.85;1.50;;;;;;;30.04;40.65;99203.16;4476703;31;33893;-82
2022/08/26 09:11:20;;;;;;;7.45;1.83;;;;;;;30.17;39.87;99205.38;4482268;32;33978;-83
2022/08/26 09:13:52;;;;;;;7.62;1.92;;;;;;;30.20;38.78;99200.59;4476446;32;33572;-82
2022/08/26 09:16:30;;;;;;;4.45;1.85;;;;;;;30.61;38.06;99205.31;4476853;32;33709;-82
2022/08/26 09:19:17;;;;;;;7.97;1.67;;;;;;;30.69;37.84;99200.00;4476747;32;33651;-83
2022/08/26 09:21:56;;;;;;;4.62;1.77;;;;;;;30.63;38.17;99196.13;4481308;31;35061;-82
2022/08/26 09:24:25;;;;;;;3.87;1.80;;;;;;;30.76;38.38;99195.69;4481317;31;33573;-84
2022/08/26 09:26:57;;;;;;;5.07;2.22;;;;;;;30.71;38.09;99191.78;4476141;31;32965;-83
2022/08/26 09:29:28;;;;;;;3.62;2.05;;;;;;;30.74;37.11;99188.81;4476565;31;33232;-82
2022/08/26 09:32:18;;;;;;;7.10;2.20;;;;;;;30.70;37.88;99187.44;4461274;32;33754;-83
2022/08/26 09:34:56;;;;;;;3.35;1.70;;;;;;;30.86;37.73;99182.19;4460598;32;35591;-81
2022/08/26 09:37:45;;;;;;;4.30;1.75;;;;;;;31.12;37.25;99186.59;4478323;32;34579;-82
2022/08/26 09:40:21;;;;;;;3.60;1.80;;;;;;;31.02;36.83;99189.41;4483175;31;33543;-81
2022/08/26 09:43:07;;;;;;;7.25;1.75;;;;;;;31.29;35.64;99191.00;4473736;31;33541;-82
2022/08/26 09:45:39;;;;;;;5.30;1.35;;;;;;;31.21;34.69;99182.94;4476317;32;33270;-82
2022/08/26 09:48:29;;;;;;;7.57;1.65;;;;;;;31.23;35.93;99189.78;4476432;32;33316;-83
2022/08/26 09:51:00;;;;;;;4.28;1.20;;;;;;;31.28;36.31;99191.16;4479029;31;33581;-83
2022/08/26 09:53:31;;;;;;;;;;;;;;;30.98;36.70;99185.41;4497627;31;33963;-82
2022/08/26 09:56:16;;;;;;;4.62;1.67;;;;;;;31.45;35.52;99188.34;4492641;31;32874;-82
2022/08/26 09:58:47;;;;;;;4.85;1.92;;;;;;;31.44;35.21;99181.31;4479363;31;32992;-82
2022/08/26 10:01:26;;;;;;;7.68;2.17;;;;;;;31.60;34.54;99182.31;4482854;31;33585;-84
2022/08/26 10:04:07;;;;;;;3.37;1.20;;;;;;;31.39;35.32;99183.66;4483151;31;34463;-82
2022/08/26 10:06:39;;;;;;;7.70;1.92;;;;;;;31.67;34.89;99184.16;4482360;31;33862;-82
2022/08/26 10:09:12;;;;;;;3.67;1.40;;;;;;;31.78;34.36;99184.84;4486795;31;33910;-82
2022/08/26 10:11:46;;;;;;;2.60;1.27;;;;;;;31.81;35.07;99179.94;4479215;31;34481;-82
2022/08/26 10:14:19;;;;;;;6.45;2.12;;;;;;;31.70;33.61;99172.25;4475337;31;34707;-83
2022/08/26 10:16:50;;;;;;;6.22;2.50;;;;;;;32.10;32.99;99171.38;4475178;31;34349;-82
2022/08/26 10:19:25;;;;;;;4.82;2.28;;;;;;;31.92;33.91;99176.09;4474806;31;32717;-84
2022/08/26 10:22:18;;;;;;;4.95;1.90;;;;;;;32.19;33.58;99169.53;4479619;31;34508;-84
2022/08/26 10:24:51;;;;;;;3.87;1.33;;;;;;;31.78;33.93;99172.25;4477644;31;33815;-83
2022/08/26 10:27:30;;;;;;;9.10;1.50;;;;;;;32.26;33.11;99167.00;4474099;31;33861;-81
2022/08/26 10:30:05;;;;;;;4.15;1.87;;;;;;;32.48;32.46;99162.72;4481581;31;34705;-82
2022/08/26 10:32:37;;;;;;;4.10;1.20;;;;;;;32.54;32.80;99161.22;4490074;31;33862;-84
2022/08/26 10:35:11;;;;;;;5.28;1.77;;;;;;;32.45;32.76;99152.31;4496788;31;33426;-82
2022/08/26 10:37:42;;;;;;;7.82;1.33;;;;;;;32.51;31.06;99154.34;4475853;31;33830;-83
2022/08/26 10:40:15;;;;;;;2.92;1.40;;;;;;;32.59;31.46;99154.28;4475392;32;32995;-82
2022/08/26 10:42:48;;;;;;;2.90;1.40;;;;;;;32.74;31.87;99151.69;4475580;32;33663;-84
2022/08/26 10:45:20;;;;;;;2.87;1.10;;;;;;;32.78;30.28;99155.72;4474746;32;33700;-83
2022/08/26 10:47:52;;;;;;;4.62;1.50;;;;;;;32.89;30.53;99151.81;4479479;32;33541;-84
2022/08/26 10:50:22;;;;;;;3.70;1.42;;;;;;;33.06;29.37;99144.50;4472382;32;33627;-82
2022/08/26 10:52:55;;;;;;;5.18;2.17;;;;;;;32.99;29.01;99148.88;4474565;32;35402;-83
2022/08/26 10:55:34;;;;;;;3.62;1.23;;;;;;;33.24;26.21;99139.66;4474206;32;34619;-83
2022/08/26 10:58:16;;;;;;;4.18;1.70;;;;;;;33.12;26.23;99138.41;4474306;32;33682;-84
2022/08/26 11:03:57;;;;;;;3.30;1.30;;;;;;;33.23;29.97;99132.63;4481359;32;34432;-83
2022/08/26 11:06:28;;;;;;;3.33;1.87;;;;;;;33.33;29.67;99135.06;4477176;32;34828;-81
2022/08/26 11:08:58;;;;;;;2.85;1.20;;;;;;;33.21;29.25;99139.19;4477274;32;32822;-82
2022/08/26 11:11:52;;;;;;;4.15;1.52;;;;;;;33.35;29.37;99139.22;4477360;32;33422;-82
2022/08/26 11:14:37;;;;;;;2.10;0.90;;;;;;;33.27;27.74;99135.75;4477743;32;33598;-83
2022/08/26 11:17:56;;;;;;;6.87;1.95;;;;;;;33.65;26.86;99127.75;4477540;32;34181;-84
2022/08/26 11:20:35;;;;;;;4.65;2.35;;;;;;;33.90;25.79;99128.31;4412832;32;33987;-84
2022/08/26 11:23:39;;;;;;;3.70;1.48;;;;;;;33.84;27.97;99129.91;4418573;32;32304;-83
2022/08/26 11:26:17;;;;;;;2.05;0.93;;;;;;;33.47;28.48;99122.69;4402754;32;34373;-83
2022/08/26 11:29:09;;;;;;;6.43;1.65;;;;;;;33.73;28.31;99123.13;4401066;32;34918;-84
2022/08/26 11:31:55;;;;;;;4.90;1.40;;;;;;;33.39;27.10;99115.50;4412757;32;33736;-83
2022/08/26 11:34:56;;;;;;;2.75;1.37;;;;;;;33.84;26.83;99110.25;4412548;32;32823;-85
2022/08/26 11:37:30;;;;;;;6.25;2.03;;;;;;;33.85;26.35;99111.91;4405073;32;33517;-85
2022/08/26 11:40:02;;;;;;;1.85;1.05;;;;;;;33.77;27.23;99107.44;4411822;32;34808;-83
2022/08/26 11:42:35;;;;;;;4.62;1.70;;;;;;;34.23;26.37;99103.78;4416758;32;33724;-84
2022/08/26 11:45:22;;;;;;;4.22;1.10;;;;;;;34.05;25.54;99104.13;4410679;32;32999;-83
2022/08/26 11:47:51;;;;;;;4.12;1.33;;;;;;;33.73;26.73;99103.44;4410845;32;33564;-85
2022/08/26 11:50:24;;;;;;;5.40;2.72;;;;;;;34.18;25.87;99094.37;4410022;32;33559;-85
2022/08/26 11:52:55;;;;;;;3.28;1.00;;;;;;;34.34;25.63;99095.22;4412897;32;34005;-85
2022/08/26 11:55:25;;;;;;;4.22;1.50;;;;;;;34.38;25.79;99091.97;4430093;31;34119;-83
2022/08/26 11:57:55;;;;;;;5.70;1.67;;;;;;;34.78;25.32;99095.13;4484365;31;33827;-83
2022/08/26 12:00:30;;;;;;;5.65;1.67;;;;;;;35.09;24.89;99088.59;4482741;31;34159;-84
2022/08/26 12:03:06;;;;;;;3.40;1.55;;;;;;;35.08;24.39;99095.00;4481316;31;33778;-83
2022/08/26 12:05:38;;;;;;;3.70;1.25;;;;;;;35.23;24.47;99087.72;4486226;31;32876;-84
2022/08/26 12:08:09;;;;;;;4.12;1.10;;;;;;;35.04;24.10;99089.19;4489395;31;34818;-84
2022/08/26 12:10:38;;;;;;;2.78;1.45;;;;;;;35.34;24.20;99080.13;4481440;31;33650;-83